Terminal Aerodrome Forecast
Issued by NWS

Home | Current Version | Previous Version | Text Only | Print | Product List | Glossary Off
Versions: 1 2 3 4 5 6 7 8 9 10 11 12 13 14 15 16 17 18 19 20

000
FTUS41 KCLE 200544
TAFFDY
TAF
KFDY 200544Z 2006/2106 22018KT P6SM BKN250
     FM200900 22015KT P6SM BKN250
     FM202000 22012KT P6SM BKN018
     FM210100 22008KT P6SM OVC009=

USA.gov is the U.S. government's official web portal to all federal, state and local government web resources and services.